Time;durP1;ratioP1;P1;durP2;ratioP2;P2;SDS_P1;SDS_P2;PMS_P1;PMS_P2;Temp;Humidity;BMP_temperature;BMP_pressure;BME280_temperature;BME280_humidity;BME280_pressure;Samples;Min_cycle;Max_cycle;Signal;HPM_P1;HPM_P2
2021/08/25 00:01:38;;;;;;;5.25;2.55;;;;;;;13.96;62.95;101561.91;4905837;28;114150;-69
2021/08/25 00:04:04;;;;;;;5.97;2.83;;;;;;;13.94;63.27;101558.63;4920424;28;117424;-64
2021/08/25 00:06:32;;;;;;;6.55;3.03;;;;;;;13.90;62.77;101552.09;4919213;28;98798;-69
2021/08/25 00:08:58;;;;;;;6.38;3.53;;;;;;;13.86;63.20;101553.69;4904531;28;99873;-69
2021/08/25 00:11:24;;;;;;;8.50;3.78;;;;;;;13.79;63.40;101544.97;4903046;28;98206;-70
2021/08/25 00:13:50;;;;;;;6.57;3.65;;;;;;;13.73;63.78;101543.34;4903413;28;108358;-64
2021/08/25 00:16:17;;;;;;;5.53;3.72;;;;;;;13.68;63.43;101537.91;4901846;28;98448;-69
2021/08/25 00:18:43;;;;;;;8.10;4.07;;;;;;;13.62;63.43;101549.78;4903283;28;98603;-64
2021/08/25 00:21:09;;;;;;;6.88;3.63;;;;;;;13.55;63.64;101552.69;4903219;28;112100;-64
2021/08/25 00:23:35;;;;;;;7.28;3.63;;;;;;;13.49;63.90;101551.06;4903230;28;104984;-64
2021/08/25 00:26:01;;;;;;;5.30;3.08;;;;;;;13.45;64.32;101550.75;4903753;28;98483;-64
2021/08/25 00:28:27;;;;;;;5.15;3.17;;;;;;;13.43;64.36;101541.25;4903292;28;98276;-64
2021/08/25 00:30:53;;;;;;;8.65;3.22;;;;;;;13.40;64.05;101548.00;4903379;28;104464;-69
2021/08/25 00:33:19;;;;;;;5.88;3.25;;;;;;;13.37;64.15;101539.59;4903308;28;117767;-69
2021/08/25 00:35:45;;;;;;;7.13;3.20;;;;;;;13.33;64.40;101547.41;4918614;28;98484;-69
2021/08/25 00:38:11;;;;;;;5.95;2.67;;;;;;;13.31;64.19;101530.59;4919779;28;127964;-69
2021/08/25 00:40:38;;;;;;;3.47;2.30;;;;;;;13.28;63.95;101525.69;4895600;28;127588;-64
2021/08/25 00:43:05;;;;;;;5.93;2.47;;;;;;;13.25;64.13;101523.53;4901125;28;102965;-64
2021/08/25 00:45:53;;;;;;;4.18;2.30;;;;;;;13.20;64.07;101527.00;4912083;28;98806;-64
2021/08/25 00:48:19;;;;;;;3.05;2.08;;;;;;;13.13;64.21;101518.25;4904049;28;128276;-69
2021/08/25 00:50:52;;;;;;;4.50;2.30;;;;;;;13.03;63.93;101518.97;4902950;28;127683;-64
2021/08/25 00:53:22;;;;;;;3.28;2.00;;;;;;;12.98;64.34;101528.97;4920271;28;98075;-69
2021/08/25 00:55:49;;;;;;;3.92;2.30;;;;;;;12.96;64.63;101525.69;4920872;28;98315;-69
2021/08/25 00:58:15;;;;;;;3.78;1.92;;;;;;;12.93;64.50;101531.59;4918018;28;108984;-64
2021/08/25 01:01:06;;;;;;;3.25;2.00;;;;;;;12.87;64.16;101532.66;4899113;28;116175;-64
2021/08/25 01:03:44;;;;;;;3.45;2.28;;;;;;;12.85;64.39;101523.94;4900326;28;97876;-69
2021/08/25 01:06:13;;;;;;;5.53;2.47;;;;;;;12.78;64.34;101525.00;4916545;28;115804;-69
2021/08/25 01:08:39;;;;;;;4.30;2.25;;;;;;;12.72;64.97;101522.50;4884981;28;117856;-64
2021/08/25 01:11:07;;;;;;;5.47;2.80;;;;;;;12.65;64.58;101513.75;4899306;28;127587;-64
2021/08/25 01:13:33;;;;;;;5.20;2.83;;;;;;;12.63;64.72;101515.91;4921684;28;98251;-64
2021/08/25 01:15:59;;;;;;;4.90;2.63;;;;;;;12.61;64.67;101509.94;4919977;28;124773;-68
2021/08/25 01:18:25;;;;;;;4.72;2.35;;;;;;;12.56;64.60;101509.88;4921110;28;117802;-64
2021/08/25 01:20:51;;;;;;;5.53;2.47;;;;;;;12.51;64.47;101507.97;4902750;28;126179;-64
2021/08/25 01:23:21;;;;;;;4.70;2.28;;;;;;;12.43;64.63;101498.41;4903305;28;103883;-69
2021/08/25 01:25:49;;;;;;;7.85;2.50;;;;;;;12.38;64.91;101500.22;4910569;28;103125;-64
2021/08/25 01:28:18;;;;;;;5.30;2.05;;;;;;;12.34;65.13;101496.41;4869976;28;98228;-64
2021/08/25 01:30:44;;;;;;;6.82;2.53;;;;;;;12.34;65.10;101496.41;4902594;28;108068;-69
2021/08/25 01:33:21;;;;;;;4.80;2.58;;;;;;;12.29;64.88;101497.97;4869012;28;98290;-64
2021/08/25 01:35:47;;;;;;;4.43;2.25;;;;;;;12.27;64.67;101500.13;4912480;28;98743;-69
2021/08/25 01:38:47;;;;;;;4.90;2.60;;;;;;;12.18;64.41;101490.84;4920838;28;98961;-68
2021/08/25 01:41:13;;;;;;;4.22;2.28;;;;;;;12.12;64.55;101486.44;4918545;28;112676;-69
2021/08/25 01:43:39;;;;;;;4.32;2.20;;;;;;;12.07;64.93;101485.59;4922143;28;98523;-69
2021/08/25 01:46:05;;;;;;;4.38;2.20;;;;;;;12.01;64.81;101490.09;4917833;28;127462;-69
2021/08/25 01:48:32;;;;;;;4.43;2.17;;;;;;;11.97;64.77;101483.56;4920495;28;128401;-64
2021/08/25 01:50:59;;;;;;;3.72;2.10;;;;;;;11.95;64.96;101489.22;4917554;28;127375;-69
2021/08/25 01:53:25;;;;;;;3.88;2.55;;;;;;;11.91;65.18;101488.09;4920155;28;107754;-64
2021/08/25 01:55:51;;;;;;;4.03;2.47;;;;;;;11.89;65.03;101495.63;4920551;28;121411;-69
2021/08/25 01:58:17;;;;;;;5.93;2.58;;;;;;;11.85;65.06;101496.38;4919898;28;126917;-68
2021/08/25 02:00:43;;;;;;;5.38;2.20;;;;;;;11.83;64.95;101493.94;4920893;28;127688;-69
2021/08/25 02:03:09;;;;;;;4.10;2.40;;;;;;;11.80;65.29;101489.00;4918255;28;116780;-64
2021/08/25 02:05:35;;;;;;;5.68;2.50;;;;;;;11.73;65.02;101491.88;4902977;28;126995;-64
2021/08/25 02:08:01;;;;;;;5.78;2.47;;;;;;;11.70;65.15;101496.97;4879605;28;106107;-70
2021/08/25 02:10:27;;;;;;;4.95;2.50;;;;;;;11.67;65.53;101492.06;4885655;28;126887;-64
2021/08/25 02:12:53;;;;;;;4.43;2.40;;;;;;;11.64;65.08;101485.28;4921681;28;98022;-64
2021/08/25 02:15:19;;;;;;;4.50;2.08;;;;;;;11.64;65.76;101488.00;4919766;28;128045;-64
2021/08/25 02:17:45;;;;;;;4.10;2.30;;;;;;;11.61;65.18;101485.78;4919577;28;127934;-64
2021/08/25 02:20:12;;;;;;;4.22;2.15;;;;;;;11.59;65.50;101479.78;4918119;28;127625;-64
2021/08/25 02:22:38;;;;;;;5.30;2.60;;;;;;;11.58;65.87;101477.34;4918053;28;98002;-64
2021/08/25 02:25:04;;;;;;;5.40;2.40;;;;;;;11.59;65.62;101478.97;4920509;28;112935;-64
2021/08/25 02:27:30;;;;;;;3.75;2.35;;;;;;;11.56;65.24;101466.81;4919784;28;99053;-69
2021/08/25 02:29:56;;;;;;;4.32;2.60;;;;;;;11.52;65.34;101469.19;4919750;28;126121;-67
2021/08/25 02:32:26;;;;;;;5.15;2.50;;;;;;;11.46;65.03;101470.19;4913795;28;97880;-65
2021/08/25 02:34:52;;;;;;;5.28;2.88;;;;;;;11.43;65.62;101467.97;4912798;28;128127;-64
2021/08/25 02:37:19;;;;;;;4.05;2.65;;;;;;;11.40;65.73;101464.97;4919393;28;128167;-69
2021/08/25 02:39:45;;;;;;;4.60;2.42;;;;;;;11.37;65.85;101466.28;4902432;28;117290;-64
2021/08/25 02:42:11;;;;;;;4.70;2.67;;;;;;;11.36;65.62;101464.66;4918598;28;119466;-64
2021/08/25 02:44:38;;;;;;;5.63;3.13;;;;;;;11.34;65.64;101468.66;4920401;28;107230;-64
2021/08/25 02:47:04;;;;;;;4.47;2.50;;;;;;;11.33;66.09;101465.13;4910103;28;124165;-69
2021/08/25 02:49:30;;;;;;;5.85;3.33;;;;;;;11.30;66.10;101465.63;4885950;28;116462;-64
2021/08/25 02:51:56;;;;;;;5.82;2.80;;;;;;;11.28;65.69;101462.38;4877725;28;118215;-64
2021/08/25 02:54:23;;;;;;;4.03;2.55;;;;;;;11.25;65.87;101462.88;4910282;28;128627;-69
2021/08/25 02:56:49;;;;;;;4.57;2.80;;;;;;;11.22;66.33;101464.16;4889995;28;98692;-68
2021/08/25 02:59:15;;;;;;;5.65;3.13;;;;;;;11.22;65.90;101455.25;4886756;28;98044;-68
2021/08/25 03:01:41;;;;;;;4.70;3.17;;;;;;;11.20;66.02;101451.97;4920363;28;117580;-64
2021/08/25 03:04:07;;;;;;;6.35;3.03;;;;;;;11.19;66.18;101447.66;4904538;28;126717;-64
2021/08/25 03:06:33;;;;;;;6.25;3.20;;;;;;;11.16;66.43;101448.97;4891641;28;125776;-64
2021/08/25 03:08:59;;;;;;;4.07;2.72;;;;;;;11.13;66.35;101441.38;4885443;28;127455;-69
2021/08/25 03:11:25;;;;;;;4.25;2.70;;;;;;;11.13;66.25;101449.47;4903858;28;118291;-64
2021/08/25 03:13:51;;;;;;;4.68;2.90;;;;;;;11.12;66.54;101438.91;4904284;28;127822;-69
2021/08/25 03:16:17;;;;;;;5.32;3.10;;;;;;;11.09;66.33;101436.72;4916147;28;128207;-64
2021/08/25 03:18:43;;;;;;;6.65;2.83;;;;;;;11.05;66.70;101439.09;4891807;28;98306;-64
2021/08/25 03:21:09;;;;;;;7.07;2.80;;;;;;;11.01;66.50;101433.38;4904390;28;106925;-69
2021/08/25 03:23:36;;;;;;;7.60;2.83;;;;;;;10.99;66.29;101437.38;4904561;28;101348;-64
2021/08/25 03:26:02;;;;;;;4.70;2.83;;;;;;;10.97;66.10;101442.22;4904321;28;127892;-64
2021/08/25 03:28:28;;;;;;;5.07;2.70;;;;;;;10.94;66.07;101442.69;4910931;28;126929;-64
2021/08/25 03:30:57;;;;;;;3.75;2.35;;;;;;;10.94;66.07;101437.31;4922900;28;117312;-64
2021/08/25 03:33:23;;;;;;;5.63;2.95;;;;;;;10.90;66.35;101422.66;4924097;28;97749;-64
2021/08/25 03:35:50;;;;;;;5.43;2.55;;;;;;;10.92;66.11;101425.91;4923345;28;112110;-69
2021/08/25 03:38:16;;;;;;;5.70;2.58;;;;;;;10.92;66.04;101431.31;4885890;28;127499;-69
2021/08/25 03:40:42;;;;;;;5.72;2.72;;;;;;;10.95;66.46;101425.44;4902433;28;97883;-64
2021/08/25 03:43:08;;;;;;;4.38;2.60;;;;;;;10.99;66.01;101422.00;4903619;28;98210;-69
2021/08/25 03:45:34;;;;;;;7.90;2.65;;;;;;;11.05;66.06;101431.81;4903934;28;128076;-64
2021/08/25 03:48:00;;;;;;;4.95;2.70;;;;;;;11.10;66.33;101419.47;4920004;28;126027;-68
2021/08/25 03:50:26;;;;;;;5.28;2.80;;;;;;;11.10;66.27;101409.47;4922491;28;118255;-63
2021/08/25 03:52:52;;;;;;;4.35;2.75;;;;;;;11.16;65.93;101418.44;4922237;28;127507;-63
2021/08/25 03:55:19;;;;;;;4.25;2.78;;;;;;;11.18;66.44;101406.34;4922022;28;126668;-69
2021/08/25 03:57:45;;;;;;;4.05;2.40;;;;;;;11.21;66.18;101408.56;4913467;28;127692;-69
2021/08/25 04:00:11;;;;;;;5.72;2.65;;;;;;;11.23;66.07;101411.81;4922609;28;98476;-64
2021/08/25 04:02:37;;;;;;;5.32;2.47;;;;;;;11.27;65.97;101412.13;4906404;28;114107;-64
2021/08/25 04:05:04;;;;;;;4.05;2.40;;;;;;;11.28;66.33;101411.91;4902501;28;128085;-69
2021/08/25 04:07:30;;;;;;;3.92;2.28;;;;;;;11.28;65.45;101403.81;4902638;28;112513;-69
2021/08/25 04:09:56;;;;;;;4.78;2.58;;;;;;;11.29;65.51;101410.84;4902945;28;118462;-64
2021/08/25 04:12:22;;;;;;;5.90;2.88;;;;;;;11.28;65.19;101408.41;4899817;28;112659;-69
2021/08/25 04:14:48;;;;;;;4.88;3.08;;;;;;;11.27;65.55;101401.34;4902550;28;127919;-69
2021/08/25 04:17:14;;;;;;;4.45;2.83;;;;;;;11.26;65.67;101392.44;4900829;28;128213;-64
2021/08/25 04:19:40;;;;;;;4.70;2.72;;;;;;;11.26;65.25;101395.13;4903415;28;118710;-69
2021/08/25 04:22:06;;;;;;;5.13;2.97;;;;;;;11.25;65.01;101392.69;4895024;28;128159;-64
2021/08/25 04:24:32;;;;;;;5.00;2.97;;;;;;;11.25;65.36;101390.81;4911479;28;128271;-69
2021/08/25 04:26:58;;;;;;;6.03;3.00;;;;;;;11.26;65.21;101381.63;4922280;28;97967;-69
2021/08/25 04:29:24;;;;;;;5.50;2.72;;;;;;;11.27;65.36;101398.63;4923270;28;97921;-69
2021/08/25 04:31:50;;;;;;;5.82;2.70;;;;;;;11.27;65.47;101391.34;4919343;28;123557;-64
2021/08/25 04:34:16;;;;;;;3.63;2.25;;;;;;;11.29;65.42;101391.13;4918730;28;126952;-64
2021/08/25 04:36:42;;;;;;;3.67;2.70;;;;;;;11.33;65.39;101394.16;4896364;28;126208;-69
2021/08/25 04:39:08;;;;;;;3.47;2.38;;;;;;;11.37;65.10;101384.47;4897336;28;115635;-69
2021/08/25 04:41:34;;;;;;;5.80;2.85;;;;;;;11.39;65.46;101382.34;4881932;28;127343;-69
2021/08/25 04:44:01;;;;;;;5.43;2.78;;;;;;;11.40;65.09;101381.28;4897818;28;99104;-69
2021/08/25 04:46:27;;;;;;;4.47;2.60;;;;;;;11.42;64.92;101385.34;4902813;28;98359;-69
2021/08/25 04:48:53;;;;;;;4.97;2.83;;;;;;;11.43;65.37;101384.28;4897931;28;116478;-64
2021/08/25 04:51:19;;;;;;;5.20;2.80;;;;;;;11.44;65.54;101385.94;4897307;28;126891;-64
2021/08/25 04:53:45;;;;;;;4.63;2.70;;;;;;;11.46;65.49;101389.19;4899792;28;128239;-64
2021/08/25 04:56:11;;;;;;;5.07;2.97;;;;;;;11.46;65.18;101386.47;4898826;28;127962;-65
2021/08/25 04:58:37;;;;;;;4.40;2.72;;;;;;;11.47;65.34;101388.09;4897834;28;117693;-69
2021/08/25 05:01:06;;;;;;;5.68;2.95;;;;;;;11.48;64.99;101381.66;4878742;28;107392;-69
2021/08/25 05:03:35;;;;;;;5.55;3.10;;;;;;;11.52;65.62;101381.97;4882841;28;118465;-69
2021/08/25 05:06:11;;;;;;;4.85;2.80;;;;;;;11.54;64.91;101388.75;4899338;28;108105;-64
2021/08/25 05:08:37;;;;;;;7.38;3.28;;;;;;;11.59;65.83;101374.47;4899705;28;97949;-64
2021/08/25 05:11:04;;;;;;;4.40;3.03;;;;;;;11.67;65.51;101389.44;4898905;28;99334;-69
2021/08/25 05:13:30;;;;;;;4.38;2.63;;;;;;;11.74;65.50;101387.34;4902119;28;98934;-69
2021/08/25 05:15:56;;;;;;;4.45;2.60;;;;;;;11.78;65.78;101386.59;4903101;28;112853;-69
2021/08/25 05:18:22;;;;;;;6.45;2.90;;;;;;;11.83;65.73;101383.19;4920759;28;97690;-64
2021/08/25 05:20:48;;;;;;;5.82;2.97;;;;;;;11.89;65.21;101389.44;4921205;28;127056;-69
2021/08/25 05:23:14;;;;;;;4.90;3.22;;;;;;;11.94;65.46;101376.78;4918993;28;127181;-69
2021/08/25 05:25:40;;;;;;;5.78;3.05;;;;;;;12.02;65.23;101386.34;4919799;28;127908;-70
2021/08/25 05:28:06;;;;;;;4.13;2.53;;;;;;;12.09;65.66;101375.34;4919580;28;118000;-69
2021/08/25 05:30:33;;;;;;;4.28;2.88;;;;;;;12.17;65.62;101378.38;4903206;28;107349;-69
2021/08/25 05:32:59;;;;;;;4.10;2.83;;;;;;;12.27;65.27;101383.09;4902796;28;125985;-69
2021/08/25 05:35:25;;;;;;;3.80;2.63;;;;;;;12.36;65.12;101386.94;4901297;28;127868;-64
2021/08/25 05:37:51;;;;;;;5.57;3.00;;;;;;;12.48;65.08;101382.19;4884706;28;99718;-69
2021/08/25 05:40:17;;;;;;;4.88;2.70;;;;;;;12.58;65.32;101376.06;4909410;28;123191;-70
2021/08/25 05:42:44;;;;;;;5.13;2.83;;;;;;;12.69;65.24;101379.63;4902862;28;117503;-64
2021/08/25 05:45:11;;;;;;;6.22;2.90;;;;;;;12.82;64.99;101379.19;4907623;28;98271;-69
2021/08/25 05:47:37;;;;;;;4.38;2.53;;;;;;;12.93;64.86;101378.19;4901500;28;97796;-70
2021/08/25 05:50:05;;;;;;;5.70;3.00;;;;;;;13.03;64.70;101372.81;4902397;28;98332;-69
2021/08/25 05:52:31;;;;;;;5.40;2.67;;;;;;;13.14;64.41;101368.28;4910995;28;104101;-69
2021/08/25 05:54:57;;;;;;;4.10;2.75;;;;;;;13.25;64.33;101369.19;4911862;28;127583;-69
2021/08/25 05:57:23;;;;;;;4.57;2.95;;;;;;;13.39;64.24;101369.53;4901002;28;117363;-64
2021/08/25 05:59:49;;;;;;;3.85;2.63;;;;;;;13.49;63.81;101359.56;4920628;28;102699;-64
2021/08/25 06:02:15;;;;;;;5.63;2.83;;;;;;;13.64;63.73;101360.69;4919446;28;127618;-64
2021/08/25 06:04:41;;;;;;;4.07;2.60;;;;;;;13.75;63.39;101352.34;4920721;28;127188;-64
2021/08/25 06:07:09;;;;;;;4.28;2.60;;;;;;;13.90;63.24;101340.69;4920520;28;115722;-70
2021/08/25 06:09:35;;;;;;;5.22;2.75;;;;;;;14.04;63.14;101340.19;4920862;28;97946;-64
2021/08/25 06:12:01;;;;;;;5.80;2.90;;;;;;;14.19;62.63;101353.78;4920865;28;98196;-64
2021/08/25 06:14:27;;;;;;;4.85;2.60;;;;;;;14.34;62.35;101348.31;4920219;28;117684;-64
2021/08/25 06:16:53;;;;;;;4.28;2.22;;;;;;;14.51;62.30;101345.38;4919961;28;117928;-64
2021/08/25 06:19:19;;;;;;;4.43;2.20;;;;;;;14.68;61.60;101345.91;4917624;28;128428;-70
2021/08/25 06:21:46;;;;;;;4.55;2.30;;;;;;;14.87;61.24;101348.06;4921098;28;98697;-64
2021/08/25 06:24:12;;;;;;;4.78;2.60;;;;;;;15.06;61.19;101351.81;4924065;28;97891;-65
2021/08/25 06:26:39;;;;;;;3.42;2.47;;;;;;;15.24;60.83;101347.66;4924859;28;97905;-70
2021/08/25 06:29:05;;;;;;;4.95;2.58;;;;;;;15.41;60.16;101353.59;4922203;28;116317;-65
2021/08/25 06:31:31;;;;;;;5.55;2.40;;;;;;;15.58;60.02;101350.53;4923682;28;127978;-64
2021/08/25 06:33:57;;;;;;;3.95;2.28;;;;;;;15.80;59.63;101358.31;4924874;28;97977;-70
2021/08/25 06:36:23;;;;;;;4.78;2.42;;;;;;;16.02;59.29;101348.94;4924996;28;97882;-65
2021/08/25 06:38:49;;;;;;;4.88;2.63;;;;;;;16.25;58.50;101347.41;4923976;28;127921;-65
2021/08/25 06:41:15;;;;;;;5.80;2.45;;;;;;;16.52;57.90;101344.19;4922853;28;126557;-70
2021/08/25 06:43:42;;;;;;;5.00;2.83;;;;;;;16.95;56.81;101345.16;4924166;28;113822;-65
2021/08/25 06:46:08;;;;;;;4.00;2.50;;;;;;;17.63;55.48;101346.78;4926286;28;97973;-70
2021/08/25 06:48:34;;;;;;;4.68;2.50;;;;;;;18.46;54.15;101337.09;4922185;28;98264;-70
2021/08/25 06:51:00;;;;;;;4.97;2.50;;;;;;;19.10;52.57;101334.59;4920836;28;126736;-65
2021/08/25 06:53:26;;;;;;;4.20;2.58;;;;;;;19.60;51.92;101340.91;4923977;28;99626;-65
2021/08/25 06:55:52;;;;;;;3.88;2.65;;;;;;;20.03;51.09;101335.03;4924368;28;98010;-65
2021/08/25 06:58:18;;;;;;;4.15;2.60;;;;;;;20.44;50.12;101333.22;4922992;28;123695;-70
2021/08/25 07:00:44;;;;;;;5.13;2.47;;;;;;;20.68;49.43;101336.47;4904965;28;126823;-70
2021/08/25 07:03:10;;;;;;;3.83;2.28;;;;;;;21.08;48.67;101329.03;4921397;28;127935;-65
2021/08/25 07:05:37;;;;;;;4.03;2.40;;;;;;;21.31;47.98;101335.25;4924710;28;97865;-70
2021/08/25 07:08:03;;;;;;;3.65;2.35;;;;;;;21.50;47.72;101336.94;4921304;28;98699;-65
2021/08/25 07:10:29;;;;;;;3.85;2.17;;;;;;;21.69;47.27;101331.97;4922334;28;107093;-70
2021/08/25 07:12:55;;;;;;;6.22;2.20;;;;;;;21.75;47.02;101333.41;4923013;28;120718;-70
2021/08/25 07:15:21;;;;;;;5.15;2.20;;;;;;;21.80;46.67;101335.19;4923877;28;97773;-65
2021/08/25 07:17:47;;;;;;;3.47;2.30;;;;;;;21.70;47.00;101330.03;4924543;28;98229;-70
2021/08/25 07:20:14;;;;;;;4.95;2.17;;;;;;;21.50;47.47;101324.03;4905554;28;98519;-65
2021/08/25 07:22:40;;;;;;;4.28;2.40;;;;;;;21.36;47.01;101325.28;4921673;28;98299;-70
2021/08/25 07:25:07;;;;;;;3.58;2.20;;;;;;;21.23;47.09;101310.56;4922235;28;100210;-70
2021/08/25 07:27:34;;;;;;;4.95;2.65;;;;;;;21.13;47.17;101317.13;4923172;28;103120;-70
2021/08/25 07:30:00;;;;;;;4.63;2.50;;;;;;;21.13;47.06;101313.59;4923673;28;99555;-65
2021/08/25 07:32:26;;;;;;;3.90;2.30;;;;;;;21.12;46.93;101310.03;4922153;28;127607;-70
2021/08/25 07:34:52;;;;;;;5.32;2.65;;;;;;;21.12;46.75;101310.03;4919943;28;119198;-70
2021/08/25 07:37:19;;;;;;;5.93;2.28;;;;;;;21.15;46.82;101306.66;4910329;28;114281;-70
2021/08/25 07:39:45;;;;;;;7.07;2.60;;;;;;;21.19;46.62;101309.59;4905323;28;127997;-65
2021/08/25 07:42:11;;;;;;;5.18;2.17;;;;;;;21.24;46.95;101303.94;4922323;28;125893;-71
2021/08/25 07:44:37;;;;;;;3.83;2.30;;;;;;;21.30;46.80;101308.16;4905957;28;98060;-70
2021/08/25 07:47:03;;;;;;;4.55;2.45;;;;;;;21.41;46.48;101292.22;4919817;28;127251;-70
2021/08/25 07:49:30;;;;;;;4.65;2.33;;;;;;;21.46;46.35;101301.13;4920390;28;128099;-70
2021/08/25 07:51:58;;;;;;;5.80;2.10;;;;;;;21.49;46.66;101294.97;4922134;28;98183;-70
2021/08/25 07:54:24;;;;;;;5.10;2.20;;;;;;;21.56;46.15;101292.56;4923413;28;97756;-65
2021/08/25 07:56:50;;;;;;;3.78;2.20;;;;;;;21.65;46.37;101305.47;4922857;28;98716;-66
2021/08/25 07:59:16;;;;;;;3.72;2.38;;;;;;;21.93;46.06;101300.47;4922576;28;115645;-70
2021/08/25 08:01:42;;;;;;;6.72;2.60;;;;;;;22.29;44.97;101289.97;4920508;28;127499;-66
2021/08/25 08:04:08;;;;;;;4.45;2.45;;;;;;;22.82;44.12;101279.59;4903068;28;117773;-66
2021/08/25 08:06:34;;;;;;;4.00;2.40;;;;;;;23.50;42.29;101279.53;4903367;28;98048;-70
2021/08/25 08:09:01;;;;;;;3.63;2.05;;;;;;;24.25;41.21;101279.53;4900403;28;129192;-65
2021/08/25 08:11:27;;;;;;;3.08;2.03;;;;;;;25.08;40.07;101275.63;4904001;28;98028;-71
2021/08/25 08:13:53;;;;;;;3.90;2.35;;;;;;;25.88;38.64;101277.63;4902961;28;115043;-66
2021/08/25 08:16:21;;;;;;;5.00;2.55;;;;;;;26.70;37.90;101273.50;4907624;28;117064;-71
2021/08/25 08:18:57;;;;;;;3.78;2.10;;;;;;;27.57;36.67;101277.06;4922532;28;98934;-66
2021/08/25 08:21:24;;;;;;;3.95;2.20;;;;;;;28.46;35.15;101275.25;4922222;28;98243;-66
2021/08/25 08:23:50;;;;;;;3.80;2.35;;;;;;;29.25;34.09;101278.09;4922447;28;97788;-71
2021/08/25 08:26:16;;;;;;;4.40;2.40;;;;;;;30.10;32.62;101274.78;4886920;28;100462;-71
2021/08/25 08:28:42;;;;;;;4.43;2.13;;;;;;;30.95;32.23;101268.41;4885403;28;107455;-73
2021/08/25 08:31:10;;;;;;;3.50;2.10;;;;;;;31.84;30.78;101271.66;4902230;28;127578;-65
2021/08/25 08:33:36;;;;;;;2.92;2.40;;;;;;;32.71;29.40;101265.00;4901866;28;98003;-65
2021/08/25 08:36:03;;;;;;;3.13;2.00;;;;;;;33.31;28.39;101261.31;4903140;28;97929;-72
2021/08/25 08:38:29;;;;;;;3.67;2.20;;;;;;;33.83;27.95;101261.47;4885327;28;104954;-66
2021/08/25 08:40:55;;;;;;;2.58;2.10;;;;;;;34.61;27.09;101250.97;4902340;28;98149;-72
2021/08/25 08:43:21;;;;;;;3.42;2.10;;;;;;;35.25;25.74;101246.72;4902549;28;97685;-72
2021/08/25 08:45:47;;;;;;;3.60;1.83;;;;;;;35.76;25.32;101237.25;4901558;28;128408;-72
2021/08/25 08:48:14;;;;;;;2.95;2.10;;;;;;;35.94;25.29;101234.22;4900154;28;128269;-72
2021/08/25 08:50:42;;;;;;;3.03;2.33;;;;;;;36.31;24.64;101224.81;4895977;28;97984;-66
2021/08/25 08:53:10;;;;;;;2.35;2.10;;;;;;;36.85;24.09;101226.69;4920608;28;97927;-65
2021/08/25 08:55:36;;;;;;;3.75;2.20;;;;;;;37.46;23.51;101229.13;4922014;28;111641;-66
2021/08/25 08:58:02;;;;;;;3.13;2.35;;;;;;;37.75;22.87;101220.03;4917227;28;98975;-65
2021/08/25 09:00:28;;;;;;;3.60;2.20;;;;;;;38.06;22.17;101212.88;4901692;28;115693;-72
2021/08/25 09:02:54;;;;;;;4.78;2.38;;;;;;;38.37;22.51;101209.72;4900256;28;116681;-72
2021/08/25 09:05:32;;;;;;;2.67;2.00;;;;;;;38.84;21.47;101209.28;4900035;28;114409;-66
2021/08/25 09:08:02;;;;;;;2.78;1.90;;;;;;;39.36;20.94;101198.94;4903217;28;98894;-72
2021/08/25 09:10:36;;;;;;;2.47;1.73;;;;;;;39.57;20.82;101189.03;4902265;28;98184;-72
2021/08/25 09:13:10;;;;;;;2.85;2.10;;;;;;;40.08;20.87;101183.38;4900827;28;97613;-66
2021/08/25 09:15:39;;;;;;;3.05;2.00;;;;;;;39.72;19.58;101176.88;4902884;28;98476;-63
2021/08/25 09:18:07;;;;;;;5.22;2.05;;;;;;;39.79;19.98;101166.63;4902634;28;98285;-63
2021/08/25 09:20:39;;;;;;;2.30;1.80;;;;;;;39.94;19.78;101162.06;4902496;28;98028;-63
2021/08/25 09:23:25;;;;;;;2.55;1.73;;;;;;;39.18;21.27;101157.97;4884647;28;100330;-63
2021/08/25 09:25:57;;;;;;;4.72;1.80;;;;;;;38.08;21.25;101156.16;4906522;28;98930;-63
2021/08/25 09:28:34;;;;;;;3.25;1.60;;;;;;;37.46;22.88;101144.00;4919350;28;105537;-69
2021/08/25 09:31:05;;;;;;;3.47;1.90;;;;;;;37.30;22.34;101139.91;4919355;28;118279;-69
2021/08/25 09:33:39;;;;;;;2.55;1.90;;;;;;;37.26;22.27;101135.59;4903397;28;98028;-63
2021/08/25 09:36:07;;;;;;;4.40;1.80;;;;;;;37.20;21.80;101137.34;4921359;28;97842;-69
2021/08/25 09:38:35;;;;;;;2.40;1.80;;;;;;;36.94;21.64;101130.66;4921565;28;98526;-62
2021/08/25 09:41:09;;;;;;;2.55;1.77;;;;;;;36.07;22.91;101123.03;4920885;28;98358;-69
2021/08/25 09:43:49;;;;;;;2.95;1.92;;;;;;;35.23;24.16;101115.50;4920781;28;97913;-62
2021/08/25 09:46:23;;;;;;;2.30;1.90;;;;;;;34.45;24.35;101115.19;4920103;28;98698;-63
2021/08/25 09:48:55;;;;;;;3.05;2.10;;;;;;;34.66;24.53;101119.00;4921280;28;99375;-68
2021/08/25 09:51:26;;;;;;;3.35;2.35;;;;;;;34.89;24.42;101107.13;4921244;28;97933;-69
2021/08/25 09:54:06;;;;;;;;;;;;;;;35.74;24.29;101107.19;4920796;28;97883;-69
2021/08/25 09:56:34;;;;;;;5.03;2.65;;;;;;;35.21;23.85;101105.94;4919736;28;119850;-62
2021/08/25 09:59:01;;;;;;;4.07;2.17;;;;;;;34.52;24.76;101103.19;4921854;28;99028;-69
2021/08/25 10:01:27;;;;;;;2.85;2.35;;;;;;;34.43;24.09;101095.25;4920613;28;98505;-69
2021/08/25 10:03:54;;;;;;;3.83;2.80;;;;;;;35.88;23.14;101090.09;4921949;28;98251;-68
2021/08/25 10:06:22;;;;;;;2.55;2.10;;;;;;;35.37;23.37;101083.69;4919411;28;98437;-69
2021/08/25 10:08:48;;;;;;;4.55;1.70;;;;;;;35.20;23.66;101084.75;4921103;28;98942;-62
2021/08/25 10:11:16;;;;;;;2.40;1.90;;;;;;;34.60;23.88;101076.69;4921249;28;97667;-68
2021/08/25 10:13:42;;;;;;;2.50;1.83;;;;;;;34.18;24.31;101077.94;4920369;28;97864;-69
2021/08/25 10:16:12;;;;;;;3.53;1.80;;;;;;;34.78;23.99;101076.50;4920870;28;98220;-68
2021/08/25 10:18:40;;;;;;;4.83;2.10;;;;;;;34.87;23.52;101071.16;4921417;28;97959;-62
2021/08/25 10:21:40;;;;;;;2.67;2.17;;;;;;;36.13;23.04;101067.25;4920786;28;97947;-62
2021/08/25 10:24:06;;;;;;;2.40;2.00;;;;;;;37.20;22.14;101075.53;4902125;28;97921;-62
2021/08/25 10:26:53;;;;;;;4.68;2.20;;;;;;;37.86;21.43;101070.75;4900434;28;127429;-62
2021/08/25 10:29:19;;;;;;;5.10;2.05;;;;;;;38.31;20.46;101059.47;4912939;28;97777;-69
2021/08/25 10:31:48;;;;;;;2.50;2.00;;;;;;;38.71;20.82;101053.53;4900506;28;126871;-63
2021/08/25 10:34:15;;;;;;;2.38;1.90;;;;;;;38.95;20.31;101040.78;4901813;28;97762;-62
2021/08/25 10:36:42;;;;;;;3.53;2.10;;;;;;;39.26;19.89;101041.03;4912338;28;98560;-69
2021/08/25 10:39:30;;;;;;;2.95;2.00;;;;;;;39.68;19.83;101028.78;4919856;28;124664;-69
2021/08/25 10:41:57;;;;;;;2.72;2.08;;;;;;;39.44;20.10;101031.19;4919502;28;118504;-62
2021/08/25 10:44:41;;;;;;;2.78;1.95;;;;;;;39.60;20.38;101022.56;4921545;28;106783;-62
2021/08/25 10:47:09;;;;;;;2.55;2.30;;;;;;;39.31;19.82;101025.56;4919316;28;99635;-69
2021/08/25 10:49:36;;;;;;;3.63;2.30;;;;;;;38.92;20.26;101013.50;4900933;28;98101;-69
2021/08/25 10:52:27;;;;;;;3.30;1.98;;;;;;;38.87;20.92;101004.81;4901097;28;97984;-69
2021/08/25 10:54:53;;;;;;;;;;;;;;;38.72;21.31;100998.81;4904973;28;98005;-63
2021/08/25 10:57:21;;;;;;;4.10;1.85;;;;;;;37.86;21.50;100994.81;4898522;28;127393;-69
2021/08/25 10:59:48;;;;;;;3.42;2.03;;;;;;;36.85;21.48;100991.63;4901340;28;100625;-69
2021/08/25 11:02:14;;;;;;;3.53;2.35;;;;;;;36.04;22.15;100989.31;4899085;28;114693;-62
2021/08/25 11:04:40;;;;;;;2.75;1.88;;;;;;;35.19;23.01;100985.94;4901451;28;110743;-69
2021/08/25 11:07:11;;;;;;;2.80;1.65;;;;;;;34.57;22.97;100970.41;4919705;28;98185;-68
2021/08/25 11:09:43;;;;;;;2.10;1.70;;;;;;;33.79;24.20;100967.25;4921818;28;98445;-61
2021/08/25 11:12:17;;;;;;;2.83;1.90;;;;;;;32.97;24.74;100967.91;4923524;28;104376;-62
2021/08/25 11:14:54;;;;;;;2.92;1.67;;;;;;;32.26;24.87;100949.50;4924314;28;97638;-61
2021/08/25 11:17:23;;;;;;;2.72;1.80;;;;;;;32.27;24.39;100945.53;4917676;28;100607;-61
2021/08/25 11:20:08;;;;;;;2.95;1.77;;;;;;;32.55;25.04;100941.84;4904851;28;98321;-68
2021/08/25 11:22:37;;;;;;;2.83;1.65;;;;;;;32.42;24.95;100944.31;4904150;28;115876;-61
2021/08/25 11:25:12;;;;;;;2.20;1.50;;;;;;;32.23;25.39;100928.03;4922014;28;97880;-61